sensor_id;sensor_type;location;lat;lon;timestamp;temperature;humidity
52381;DHT22;38310;52.796;6.942;2023-05-19T00:01:15;7.90;99.90
52381;DHT22;38310;52.796;6.942;2023-05-19T00:03:52;7.90;99.90
52381;DHT22;38310;52.796;6.942;2023-05-19T00:06:22;7.90;99.90
52381;DHT22;38310;52.796;6.942;2023-05-19T00:08:49;7.80;99.90
52381;DHT22;38310;52.796;6.942;2023-05-19T00:11:19;7.80;99.90
52381;DHT22;38310;52.796;6.942;2023-05-19T00:13:47;7.80;99.90
52381;DHT22;38310;52.796;6.942;2023-05-19T00:16:14;7.80;99.90
52381;DHT22;38310;52.796;6.942;2023-05-19T00:18:40;7.80;99.90
52381;DHT22;38310;52.796;6.942;2023-05-19T00:21:06;7.70;99.90
52381;DHT22;38310;52.796;6.942;2023-05-19T00:23:32;7.70;99.90
52381;DHT22;38310;52.796;6.942;2023-05-19T00:25:57;7.70;99.90
52381;DHT22;38310;52.796;6.942;2023-05-19T00:28:23;7.70;99.90
52381;DHT22;38310;52.796;6.942;2023-05-19T00:30:50;7.80;99.90
52381;DHT22;38310;52.796;6.942;2023-05-19T00:33:16;7.60;99.90
52381;DHT22;38310;52.796;6.942;2023-05-19T00:35:41;7.60;99.90
52381;DHT22;38310;52.796;6.942;2023-05-19T00:38:07;7.60;99.90
52381;DHT22;38310;52.796;6.942;2023-05-19T00:40:36;7.60;99.90
52381;DHT22;38310;52.796;6.942;2023-05-19T00:43:02;6.90;99.90
52381;DHT22;38310;52.796;6.942;2023-05-19T00:45:30;7.50;99.90
52381;DHT22;38310;52.796;6.942;2023-05-19T00:47:56;7.60;99.90
52381;DHT22;38310;52.796;6.942;2023-05-19T00:50:22;7.50;99.90
52381;DHT22;38310;52.796;6.942;2023-05-19T00:52:49;7.50;99.90
52381;DHT22;38310;52.796;6.942;2023-05-19T00:55:15;7.60;99.90
52381;DHT22;38310;52.796;6.942;2023-05-19T00:57:42;7.50;99.90
52381;DHT22;38310;52.796;6.942;2023-05-19T01:00:08;7.50;99.90
52381;DHT22;38310;52.796;6.942;2023-05-19T01:02:35;7.40;99.90
52381;DHT22;38310;52.796;6.942;2023-05-19T01:05:05;7.40;99.90
52381;DHT22;38310;52.796;6.942;2023-05-19T01:07:31;7.40;99.90
52381;DHT22;38310;52.796;6.942;2023-05-19T01:09:57;7.50;99.90
52381;DHT22;38310;52.796;6.942;2023-05-19T01:12:24;7.40;99.90
52381;DHT22;38310;52.796;6.942;2023-05-19T01:14:50;7.40;99.90
52381;DHT22;38310;52.796;6.942;2023-05-19T01:20:06;7.30;99.90
52381;DHT22;38310;52.796;6.942;2023-05-19T01:31:09;7.20;99.90
52381;DHT22;38310;52.796;6.942;2023-05-19T01:33:37;7.20;99.90
52381;DHT22;38310;52.796;6.942;2023-05-19T01:36:06;7.20;99.90
52381;DHT22;38310;52.796;6.942;2023-05-19T01:38:33;7.10;99.90
52381;DHT22;38310;52.796;6.942;2023-05-19T01:40:59;7.10;99.90
52381;DHT22;38310;52.796;6.942;2023-05-19T01:43:27;7.20;99.90
52381;DHT22;38310;52.796;6.942;2023-05-19T01:45:54;7.40;99.90
52381;DHT22;38310;52.796;6.942;2023-05-19T01:48:20;7.10;99.90
52381;DHT22;38310;52.796;6.942;2023-05-19T01:50:47;7.00;99.90
52381;DHT22;38310;52.796;6.942;2023-05-19T01:53:12;7.00;99.90
52381;DHT22;38310;52.796;6.942;2023-05-19T01:55:48;7.00;99.90
52381;DHT22;38310;52.796;6.942;2023-05-19T01:58:24;6.90;99.90
52381;DHT22;38310;52.796;6.942;2023-05-19T02:03:35;6.90;99.90
52381;DHT22;38310;52.796;6.942;2023-05-19T02:06:36;6.90;99.90
52381;DHT22;38310;52.796;6.942;2023-05-19T02:09:17;6.90;99.90
52381;DHT22;38310;52.796;6.942;2023-05-19T02:11:54;6.80;99.90
52381;DHT22;38310;52.796;6.942;2023-05-19T02:14:57;6.80;99.90
52381;DHT22;38310;52.796;6.942;2023-05-19T02:17:26;6.80;99.90
52381;DHT22;38310;52.796;6.942;2023-05-19T02:19:53;7.00;99.90
52381;DHT22;38310;52.796;6.942;2023-05-19T02:22:19;6.70;99.90
52381;DHT22;38310;52.796;6.942;2023-05-19T02:24:45;6.80;99.90
52381;DHT22;38310;52.796;6.942;2023-05-19T02:27:12;6.70;99.90
52381;DHT22;38310;52.796;6.942;2023-05-19T02:29:37;6.00;99.90
52381;DHT22;38310;52.796;6.942;2023-05-19T02:32:04;6.70;99.90
52381;DHT22;38310;52.796;6.942;2023-05-19T02:34:30;6.70;99.90
52381;DHT22;38310;52.796;6.942;2023-05-19T02:36:55;6.70;99.90
52381;DHT22;38310;52.796;6.942;2023-05-19T02:39:22;6.70;99.90
52381;DHT22;38310;52.796;6.942;2023-05-19T02:41:47;6.70;99.90
52381;DHT22;38310;52.796;6.942;2023-05-19T02:44:13;6.70;99.90
52381;DHT22;38310;52.796;6.942;2023-05-19T02:46:39;6.70;99.90
52381;DHT22;38310;52.796;6.942;2023-05-19T02:49:05;6.60;99.90
52381;DHT22;38310;52.796;6.942;2023-05-19T02:51:31;6.60;99.90
52381;DHT22;38310;52.796;6.942;2023-05-19T02:53:57;6.60;99.90
52381;DHT22;38310;52.796;6.942;2023-05-19T02:56:22;6.50;99.90
52381;DHT22;38310;52.796;6.942;2023-05-19T02:58:48;6.50;99.90
52381;DHT22;38310;52.796;6.942;2023-05-19T03:01:14;6.50;99.90
52381;DHT22;38310;52.796;6.942;2023-05-19T03:03:40;6.60;99.90
52381;DHT22;38310;52.796;6.942;2023-05-19T03:06:06;6.50;99.90
52381;DHT22;38310;52.796;6.942;2023-05-19T03:08:34;6.80;99.90
52381;DHT22;38310;52.796;6.942;2023-05-19T03:11:00;6.40;99.90
52381;DHT22;38310;52.796;6.942;2023-05-19T03:13:26;6.40;99.90
52381;DHT22;38310;52.796;6.942;2023-05-19T03:15:53;6.40;99.90
52381;DHT22;38310;52.796;6.942;2023-05-19T03:18:22;6.40;99.90
52381;DHT22;38310;52.796;6.942;2023-05-19T03:20:49;6.40;99.90
52381;DHT22;38310;52.796;6.942;2023-05-19T03:23:15;6.40;99.90
52381;DHT22;38310;52.796;6.942;2023-05-19T03:25:40;6.40;99.90
52381;DHT22;38310;52.796;6.942;2023-05-19T03:28:06;6.40;99.90
52381;DHT22;38310;52.796;6.942;2023-05-19T03:30:32;6.30;99.90
52381;DHT22;38310;52.796;6.942;2023-05-19T03:32:57;6.30;99.90
52381;DHT22;38310;52.796;6.942;2023-05-19T03:35:26;6.40;99.90
52381;DHT22;38310;52.796;6.942;2023-05-19T03:37:52;6.30;99.90
52381;DHT22;38310;52.796;6.942;2023-05-19T03:40:17;6.30;99.90
52381;DHT22;38310;52.796;6.942;2023-05-19T03:42:43;6.30;99.90
52381;DHT22;38310;52.796;6.942;2023-05-19T03:45:09;6.20;99.90
52381;DHT22;38310;52.796;6.942;2023-05-19T03:47:35;6.30;99.90
52381;DHT22;38310;52.796;6.942;2023-05-19T03:50:00;6.30;99.90
52381;DHT22;38310;52.796;6.942;2023-05-19T03:52:26;6.30;99.90
52381;DHT22;38310;52.796;6.942;2023-05-19T03:54:52;6.30;99.90
52381;DHT22;38310;52.796;6.942;2023-05-19T03:57:18;6.40;99.90
52381;DHT22;38310;52.796;6.942;2023-05-19T03:59:44;6.40;99.90
52381;DHT22;38310;52.796;6.942;2023-05-19T04:02:10;6.30;99.90
52381;DHT22;38310;52.796;6.942;2023-05-19T04:04:36;6.40;99.90
52381;DHT22;38310;52.796;6.942;2023-05-19T04:07:02;6.40;99.90
52381;DHT22;38310;52.796;6.942;2023-05-19T04:09:28;6.40;99.90
52381;DHT22;38310;52.796;6.942;2023-05-19T04:11:56;6.50;99.90
52381;DHT22;38310;52.796;6.942;2023-05-19T04:14:22;6.50;99.90
52381;DHT22;38310;52.796;6.942;2023-05-19T04:16:48;6.50;99.90
52381;DHT22;38310;52.796;6.942;2023-05-19T04:19:13;6.50;99.90
52381;DHT22;38310;52.796;6.942;2023-05-19T04:21:39;6.60;99.90
52381;DHT22;38310;52.796;6.942;2023-05-19T04:24:05;6.60;99.90
52381;DHT22;38310;52.796;6.942;2023-05-19T04:26:31;6.60;99.90
52381;DHT22;38310;52.796;6.942;2023-05-19T04:28:59;6.60;99.90
52381;DHT22;38310;52.796;6.942;2023-05-19T04:31:28;6.60;99.90
52381;DHT22;38310;52.796;6.942;2023-05-19T04:33:54;6.70;99.90
52381;DHT22;38310;52.796;6.942;2023-05-19T04:36:20;6.70;99.90
52381;DHT22;38310;52.796;6.942;2023-05-19T04:38:46;6.70;99.90
52381;DHT22;38310;52.796;6.942;2023-05-19T04:41:12;6.80;99.90
52381;DHT22;38310;52.796;6.942;2023-05-19T04:43:38;6.70;99.90
52381;DHT22;38310;52.796;6.942;2023-05-19T04:46:12;6.70;99.90
52381;DHT22;38310;52.796;6.942;2023-05-19T04:48:38;6.80;99.90
52381;DHT22;38310;52.796;6.942;2023-05-19T04:51:07;6.80;99.90
52381;DHT22;38310;52.796;6.942;2023-05-19T04:53:33;6.90;99.90
52381;DHT22;38310;52.796;6.942;2023-05-19T04:55:58;6.90;99.90
52381;DHT22;38310;52.796;6.942;2023-05-19T04:58:28;6.90;99.90
52381;DHT22;38310;52.796;6.942;2023-05-19T05:00:54;7.00;99.90
52381;DHT22;38310;52.796;6.942;2023-05-19T05:03:20;7.00;99.90
52381;DHT22;38310;52.796;6.942;2023-05-19T05:05:47;7.00;99.90
52381;DHT22;38310;52.796;6.942;2023-05-19T05:08:13;7.10;99.90
52381;DHT22;38310;52.796;6.942;2023-05-19T05:10:41;7.20;99.90
52381;DHT22;38310;52.796;6.942;2023-05-19T05:13:07;7.20;99.90
52381;DHT22;38310;52.796;6.942;2023-05-19T05:15:33;7.20;99.90
52381;DHT22;38310;52.796;6.942;2023-05-19T05:18:00;7.30;99.90
52381;DHT22;38310;52.796;6.942;2023-05-19T05:20:26;7.40;99.90
52381;DHT22;38310;52.796;6.942;2023-05-19T05:22:52;7.40;99.90
52381;DHT22;38310;52.796;6.942;2023-05-19T05:25:19;7.50;99.90
52381;DHT22;38310;52.796;6.942;2023-05-19T05:27:45;7.60;99.90
52381;DHT22;38310;52.796;6.942;2023-05-19T05:30:10;7.70;99.90
52381;DHT22;38310;52.796;6.942;2023-05-19T05:32:36;7.80;99.90
52381;DHT22;38310;52.796;6.942;2023-05-19T05:35:02;7.80;99.90
52381;DHT22;38310;52.796;6.942;2023-05-19T05:37:29;8.00;99.90
52381;DHT22;38310;52.796;6.942;2023-05-19T05:39:55;8.00;99.90
52381;DHT22;38310;52.796;6.942;2023-05-19T05:42:20;8.10;99.90
52381;DHT22;38310;52.796;6.942;2023-05-19T05:44:46;8.50;99.90
52381;DHT22;38310;52.796;6.942;2023-05-19T05:47:12;8.30;99.90
52381;DHT22;38310;52.796;6.942;2023-05-19T05:49:41;8.30;99.90
52381;DHT22;38310;52.796;6.942;2023-05-19T05:52:10;8.50;99.90
52381;DHT22;38310;52.796;6.942;2023-05-19T05:54:37;8.60;99.90
52381;DHT22;38310;52.796;6.942;2023-05-19T05:57:03;8.70;99.90
52381;DHT22;38310;52.796;6.942;2023-05-19T05:59:28;8.80;99.90
52381;DHT22;38310;52.796;6.942;2023-05-19T06:01:54;8.90;99.90
52381;DHT22;38310;52.796;6.942;2023-05-19T06:04:20;9.00;99.90
52381;DHT22;38310;52.796;6.942;2023-05-19T06:06:45;9.10;99.90
52381;DHT22;38310;52.796;6.942;2023-05-19T06:09:11;9.20;99.90
52381;DHT22;38310;52.796;6.942;2023-05-19T06:11:37;9.20;99.90
52381;DHT22;38310;52.796;6.942;2023-05-19T06:14:02;9.30;99.90
52381;DHT22;38310;52.796;6.942;2023-05-19T06:16:28;9.40;99.90
52381;DHT22;38310;52.796;6.942;2023-05-19T06:18:54;9.50;99.90
52381;DHT22;38310;52.796;6.942;2023-05-19T06:21:20;9.60;99.90
52381;DHT22;38310;52.796;6.942;2023-05-19T06:23:46;9.80;99.90
52381;DHT22;38310;52.796;6.942;2023-05-19T06:26:12;9.90;99.90
52381;DHT22;38310;52.796;6.942;2023-05-19T06:28:37;10.10;99.90
52381;DHT22;38310;52.796;6.942;2023-05-19T06:31:03;10.20;99.90
52381;DHT22;38310;52.796;6.942;2023-05-19T06:33:29;10.30;99.90
52381;DHT22;38310;52.796;6.942;2023-05-19T06:35:54;10.50;99.90
52381;DHT22;38310;52.796;6.942;2023-05-19T06:38:20;10.70;99.90
52381;DHT22;38310;52.796;6.942;2023-05-19T06:40:47;10.80;99.90
52381;DHT22;38310;52.796;6.942;2023-05-19T06:43:12;11.00;99.90
52381;DHT22;38310;52.796;6.942;2023-05-19T06:45:38;11.20;99.90
52381;DHT22;38310;52.796;6.942;2023-05-19T06:48:04;11.30;99.90
52381;DHT22;38310;52.796;6.942;2023-05-19T06:50:30;11.30;99.90
52381;DHT22;38310;52.796;6.942;2023-05-19T06:52:55;11.60;99.90
52381;DHT22;38310;52.796;6.942;2023-05-19T06:55:22;11.80;99.90
52381;DHT22;38310;52.796;6.942;2023-05-19T06:57:48;11.90;99.90
52381;DHT22;38310;52.796;6.942;2023-05-19T07:00:14;12.10;99.90
52381;DHT22;38310;52.796;6.942;2023-05-19T07:02:41;12.20;99.90
52381;DHT22;38310;52.796;6.942;2023-05-19T07:05:07;12.40;99.90
52381;DHT22;38310;52.796;6.942;2023-05-19T07:07:33;12.50;99.90
52381;DHT22;38310;52.796;6.942;2023-05-19T07:09:59;12.60;99.90
52381;DHT22;38310;52.796;6.942;2023-05-19T07:12:24;12.90;99.90
52381;DHT22;38310;52.796;6.942;2023-05-19T07:14:51;13.00;99.90
52381;DHT22;38310;52.796;6.942;2023-05-19T07:17:17;13.10;99.90
52381;DHT22;38310;52.796;6.942;2023-05-19T07:19:43;13.40;99.90
52381;DHT22;38310;52.796;6.942;2023-05-19T07:22:08;13.60;99.90
52381;DHT22;38310;52.796;6.942;2023-05-19T07:24:34;13.70;99.90
52381;DHT22;38310;52.796;6.942;2023-05-19T07:27:00;13.80;99.90
52381;DHT22;38310;52.796;6.942;2023-05-19T07:29:25;14.00;99.90
52381;DHT22;38310;52.796;6.942;2023-05-19T07:31:51;14.20;99.90
52381;DHT22;38310;52.796;6.942;2023-05-19T07:34:24;14.30;99.90
52381;DHT22;38310;52.796;6.942;2023-05-19T07:36:50;14.40;99.90
52381;DHT22;38310;52.796;6.942;2023-05-19T07:39:17;14.50;99.90
52381;DHT22;38310;52.796;6.942;2023-05-19T07:41:42;14.80;99.90
52381;DHT22;38310;52.796;6.942;2023-05-19T07:44:08;15.00;99.90
52381;DHT22;38310;52.796;6.942;2023-05-19T07:46:35;15.00;99.90
52381;DHT22;38310;52.796;6.942;2023-05-19T07:49:01;15.10;99.90
52381;DHT22;38310;52.796;6.942;2023-05-19T07:51:27;15.20;99.90
52381;DHT22;38310;52.796;6.942;2023-05-19T07:53:53;15.20;99.90
52381;DHT22;38310;52.796;6.942;2023-05-19T07:56:18;15.40;99.90
52381;DHT22;38310;52.796;6.942;2023-05-19T07:58:44;15.60;99.90
52381;DHT22;38310;52.796;6.942;2023-05-19T08:01:10;15.80;99.90
52381;DHT22;38310;52.796;6.942;2023-05-19T08:03:35;16.00;99.90
52381;DHT22;38310;52.796;6.942;2023-05-19T08:06:01;16.10;99.90
52381;DHT22;38310;52.796;6.942;2023-05-19T08:08:27;16.30;99.90
52381;DHT22;38310;52.796;6.942;2023-05-19T08:10:52;16.30;99.90
52381;DHT22;38310;52.796;6.942;2023-05-19T08:13:18;16.20;99.90
52381;DHT22;38310;52.796;6.942;2023-05-19T08:15:44;16.50;99.90
52381;DHT22;38310;52.796;6.942;2023-05-19T08:18:10;16.60;99.90
52381;DHT22;38310;52.796;6.942;2023-05-19T08:20:36;16.90;99.90
52381;DHT22;38310;52.796;6.942;2023-05-19T08:23:02;17.00;99.90
52381;DHT22;38310;52.796;6.942;2023-05-19T08:25:27;16.80;99.90
52381;DHT22;38310;52.796;6.942;2023-05-19T08:27:53;17.00;99.90
52381;DHT22;38310;52.796;6.942;2023-05-19T08:30:19;17.20;99.90
52381;DHT22;38310;52.796;6.942;2023-05-19T08:32:45;17.20;99.90
52381;DHT22;38310;52.796;6.942;2023-05-19T08:35:11;17.50;99.90
52381;DHT22;38310;52.796;6.942;2023-05-19T08:37:37;17.50;99.90
52381;DHT22;38310;52.796;6.942;2023-05-19T08:40:03;17.80;99.90
52381;DHT22;38310;52.796;6.942;2023-05-19T08:42:30;17.80;99.90
52381;DHT22;38310;52.796;6.942;2023-05-19T08:44:58;17.90;99.90
52381;DHT22;38310;52.796;6.942;2023-05-19T08:47:24;18.20;99.90
52381;DHT22;38310;52.796;6.942;2023-05-19T08:49:52;18.40;99.90
52381;DHT22;38310;52.796;6.942;2023-05-19T08:52:40;18.30;99.90
52381;DHT22;38310;52.796;6.942;2023-05-19T08:55:54;18.50;99.90
52381;DHT22;38310;52.796;6.942;2023-05-19T08:58:18;18.60;99.90
52381;DHT22;38310;52.796;6.942;2023-05-19T09:00:47;18.50;99.90
52381;DHT22;38310;52.796;6.942;2023-05-19T09:03:14;18.80;99.90
52381;DHT22;38310;52.796;6.942;2023-05-19T09:05:42;18.80;99.90
52381;DHT22;38310;52.796;6.942;2023-05-19T09:08:07;19.10;99.90
52381;DHT22;38310;52.796;6.942;2023-05-19T09:10:33;19.10;99.90
52381;DHT22;38310;52.796;6.942;2023-05-19T09:12:59;19.30;99.90
52381;DHT22;38310;52.796;6.942;2023-05-19T09:15:26;19.40;99.90
52381;DHT22;38310;52.796;6.942;2023-05-19T09:18:13;19.30;99.90
52381;DHT22;38310;52.796;6.942;2023-05-19T09:20:41;19.20;99.90
52381;DHT22;38310;52.796;6.942;2023-05-19T09:23:11;19.30;99.90
52381;DHT22;38310;52.796;6.942;2023-05-19T09:25:46;19.50;99.90
52381;DHT22;38310;52.796;6.942;2023-05-19T09:28:12;19.50;99.90
52381;DHT22;38310;52.796;6.942;2023-05-19T09:30:38;19.50;99.90
52381;DHT22;38310;52.796;6.942;2023-05-19T09:33:04;19.60;99.90
52381;DHT22;38310;52.796;6.942;2023-05-19T09:35:34;19.80;99.90
52381;DHT22;38310;52.796;6.942;2023-05-19T09:38:00;20.10;99.90
52381;DHT22;38310;52.796;6.942;2023-05-19T09:40:27;20.10;99.90
52381;DHT22;38310;52.796;6.942;2023-05-19T09:42:53;20.40;99.90
52381;DHT22;38310;52.796;6.942;2023-05-19T09:45:19;20.40;99.90
52381;DHT22;38310;52.796;6.942;2023-05-19T09:47:44;20.60;99.90
52381;DHT22;38310;52.796;6.942;2023-05-19T09:50:11;20.80;99.90
52381;DHT22;38310;52.796;6.942;2023-05-19T09:52:38;20.70;99.90
52381;DHT22;38310;52.796;6.942;2023-05-19T09:55:09;20.80;99.90
52381;DHT22;38310;52.796;6.942;2023-05-19T09:57:36;20.70;99.50
52381;DHT22;38310;52.796;6.942;2023-05-19T10:00:07;20.60;99.90
52381;DHT22;38310;52.796;6.942;2023-05-19T10:02:43;20.90;99.90
52381;DHT22;38310;52.796;6.942;2023-05-19T10:05:14;20.70;97.80
52381;DHT22;38310;52.796;6.942;2023-05-19T10:07:49;20.70;99.90
52381;DHT22;38310;52.796;6.942;2023-05-19T10:10:16;20.90;99.90
52381;DHT22;38310;52.796;6.942;2023-05-19T10:12:44;20.70;99.60
52381;DHT22;38310;52.796;6.942;2023-05-19T10:15:12;20.80;99.20
52381;DHT22;38310;52.796;6.942;2023-05-19T10:17:39;21.30;99.70
52381;DHT22;38310;52.796;6.942;2023-05-19T10:20:15;21.70;99.40
52381;DHT22;38310;52.796;6.942;2023-05-19T10:22:42;21.50;97.00
52381;DHT22;38310;52.796;6.942;2023-05-19T10:25:09;21.60;98.00
52381;DHT22;38310;52.796;6.942;2023-05-19T10:27:41;21.60;98.90
52381;DHT22;38310;52.796;6.942;2023-05-19T10:30:14;21.70;96.90
52381;DHT22;38310;52.796;6.942;2023-05-19T10:32:43;21.60;97.90
52381;DHT22;38310;52.796;6.942;2023-05-19T10:44:08;22.10;96.40
52381;DHT22;38310;52.796;6.942;2023-05-19T10:46:34;22.50;96.30
52381;DHT22;38310;52.796;6.942;2023-05-19T10:49:00;22.10;95.90
52381;DHT22;38310;52.796;6.942;2023-05-19T10:51:32;22.10;95.40
52381;DHT22;38310;52.796;6.942;2023-05-19T10:54:03;22.40;95.50
52381;DHT22;38310;52.796;6.942;2023-05-19T10:56:33;22.40;95.30
52381;DHT22;38310;52.796;6.942;2023-05-19T10:59:01;22.10;95.70
52381;DHT22;38310;52.796;6.942;2023-05-19T11:01:32;21.70;93.90
52381;DHT22;38310;52.796;6.942;2023-05-19T11:04:07;21.90;92.70
52381;DHT22;38310;52.796;6.942;2023-05-19T11:06:40;21.70;93.10
52381;DHT22;38310;52.796;6.942;2023-05-19T11:09:14;21.30;93.00
52381;DHT22;38310;52.796;6.942;2023-05-19T11:11:49;21.60;93.20
52381;DHT22;38310;52.796;6.942;2023-05-19T11:14:20;21.80;94.40
52381;DHT22;38310;52.796;6.942;2023-05-19T11:16:48;21.90;94.00
52381;DHT22;38310;52.796;6.942;2023-05-19T11:19:31;22.40;94.40
52381;DHT22;38310;52.796;6.942;2023-05-19T11:22:08;22.30;92.00
52381;DHT22;38310;52.796;6.942;2023-05-19T11:24:43;22.30;91.00
52381;DHT22;38310;52.796;6.942;2023-05-19T11:27:20;22.20;90.70
52381;DHT22;38310;52.796;6.942;2023-05-19T11:29:47;22.50;89.90
52381;DHT22;38310;52.796;6.942;2023-05-19T11:32:13;22.40;89.90
52381;DHT22;38310;52.796;6.942;2023-05-19T11:34:39;22.80;90.30
52381;DHT22;38310;52.796;6.942;2023-05-19T11:37:06;23.40;91.90
52381;DHT22;38310;52.796;6.942;2023-05-19T11:39:33;23.30;90.90
52381;DHT22;38310;52.796;6.942;2023-05-19T11:41:59;23.50;90.40
52381;DHT22;38310;52.796;6.942;2023-05-19T11:44:25;23.40;89.60
52381;DHT22;38310;52.796;6.942;2023-05-19T11:46:50;23.80;91.40
52381;DHT22;38310;52.796;6.942;2023-05-19T11:49:17;23.60;90.30
52381;DHT22;38310;52.796;6.942;2023-05-19T11:51:44;23.80;88.60
52381;DHT22;38310;52.796;6.942;2023-05-19T11:54:10;23.80;88.30
52381;DHT22;38310;52.796;6.942;2023-05-19T11:56:42;23.30;87.80
52381;DHT22;38310;52.796;6.942;2023-05-19T11:59:08;23.20;85.20
52381;DHT22;38310;52.796;6.942;2023-05-19T12:01:35;23.30;87.70
52381;DHT22;38310;52.796;6.942;2023-05-19T12:04:01;23.40;89.90
52381;DHT22;38310;52.796;6.942;2023-05-19T12:06:31;23.70;90.30
52381;DHT22;38310;52.796;6.942;2023-05-19T12:08:57;23.90;89.70
52381;DHT22;38310;52.796;6.942;2023-05-19T12:11:23;23.80;87.40
52381;DHT22;38310;52.796;6.942;2023-05-19T12:13:49;23.60;85.70
52381;DHT22;38310;52.796;6.942;2023-05-19T12:16:19;23.60;84.70
52381;DHT22;38310;52.796;6.942;2023-05-19T12:18:45;23.80;84.90
52381;DHT22;38310;52.796;6.942;2023-05-19T12:21:11;23.60;84.90
52381;DHT22;38310;52.796;6.942;2023-05-19T12:23:37;24.10;86.20
52381;DHT22;38310;52.796;6.942;2023-05-19T12:26:03;24.00;86.20
52381;DHT22;38310;52.796;6.942;2023-05-19T12:28:29;24.00;87.00
52381;DHT22;38310;52.796;6.942;2023-05-19T12:30:56;23.30;85.00
52381;DHT22;38310;52.796;6.942;2023-05-19T12:33:23;23.50;85.70
52381;DHT22;38310;52.796;6.942;2023-05-19T12:35:49;23.10;83.80
52381;DHT22;38310;52.796;6.942;2023-05-19T12:38:15;23.70;84.10
52381;DHT22;38310;52.796;6.942;2023-05-19T12:40:42;23.60;84.90
52381;DHT22;38310;52.796;6.942;2023-05-19T12:43:21;23.70;84.90
52381;DHT22;38310;52.796;6.942;2023-05-19T12:45:47;24.10;85.40
52381;DHT22;38310;52.796;6.942;2023-05-19T12:48:13;24.10;86.00
52381;DHT22;38310;52.796;6.942;2023-05-19T12:50:43;24.20;85.50
52381;DHT22;38310;52.796;6.942;2023-05-19T12:53:13;24.10;82.80
52381;DHT22;38310;52.796;6.942;2023-05-19T12:55:43;24.10;83.70
52381;DHT22;38310;52.796;6.942;2023-05-19T12:58:10;24.40;82.40
52381;DHT22;38310;52.796;6.942;2023-05-19T13:00:45;24.50;84.60
52381;DHT22;38310;52.796;6.942;2023-05-19T13:03:16;24.10;82.00
52381;DHT22;38310;52.796;6.942;2023-05-19T13:05:45;23.70;83.30
52381;DHT22;38310;52.796;6.942;2023-05-19T13:08:19;23.10;82.50
52381;DHT22;38310;52.796;6.942;2023-05-19T13:10:46;23.30;82.80
52381;DHT22;38310;52.796;6.942;2023-05-19T13:13:13;23.60;83.20
52381;DHT22;38310;52.796;6.942;2023-05-19T13:15:40;23.90;83.70
52381;DHT22;38310;52.796;6.942;2023-05-19T13:18:07;24.20;83.40
52381;DHT22;38310;52.796;6.942;2023-05-19T13:20:34;24.50;83.20
52381;DHT22;38310;52.796;6.942;2023-05-19T13:23:01;24.60;83.90
52381;DHT22;38310;52.796;6.942;2023-05-19T13:25:26;24.00;82.60
52381;DHT22;38310;52.796;6.942;2023-05-19T13:27:52;23.60;82.20
52381;DHT22;38310;52.796;6.942;2023-05-19T13:30:23;23.60;84.00
52381;DHT22;38310;52.796;6.942;2023-05-19T13:32:50;24.00;83.90
52381;DHT22;38310;52.796;6.942;2023-05-19T13:35:16;24.10;82.30
52381;DHT22;38310;52.796;6.942;2023-05-19T13:37:42;24.20;82.40
52381;DHT22;38310;52.796;6.942;2023-05-19T13:40:08;24.60;81.60
52381;DHT22;38310;52.796;6.942;2023-05-19T13:42:35;24.50;81.20
52381;DHT22;38310;52.796;6.942;2023-05-19T13:45:01;24.40;81.40
52381;DHT22;38310;52.796;6.942;2023-05-19T13:47:27;23.70;80.40
52381;DHT22;38310;52.796;6.942;2023-05-19T13:49:53;23.50;80.30
52381;DHT22;38310;52.796;6.942;2023-05-19T13:52:22;23.40;81.30
52381;DHT22;38310;52.796;6.942;2023-05-19T13:54:48;23.20;81.40
52381;DHT22;38310;52.796;6.942;2023-05-19T13:57:17;23.20;81.30
52381;DHT22;38310;52.796;6.942;2023-05-19T13:59:43;23.40;80.60
52381;DHT22;38310;52.796;6.942;2023-05-19T14:02:09;23.70;79.70
52381;DHT22;38310;52.796;6.942;2023-05-19T14:04:37;23.40;79.60
52381;DHT22;38310;52.796;6.942;2023-05-19T14:07:07;23.40;80.30
52381;DHT22;38310;52.796;6.942;2023-05-19T14:09:35;23.30;80.20
52381;DHT22;38310;52.796;6.942;2023-05-19T14:12:01;23.30;80.50
52381;DHT22;38310;52.796;6.942;2023-05-19T14:14:26;23.20;80.10
52381;DHT22;38310;52.796;6.942;2023-05-19T14:16:52;23.30;80.20
52381;DHT22;38310;52.796;6.942;2023-05-19T14:19:18;23.00;80.70
52381;DHT22;38310;52.796;6.942;2023-05-19T14:21:44;22.80;79.80
52381;DHT22;38310;52.796;6.942;2023-05-19T14:24:10;22.80;80.30
52381;DHT22;38310;52.796;6.942;2023-05-19T14:26:35;23.10;80.50
52381;DHT22;38310;52.796;6.942;2023-05-19T14:29:02;22.90;79.10
52381;DHT22;38310;52.796;6.942;2023-05-19T14:31:27;22.90;78.70
52381;DHT22;38310;52.796;6.942;2023-05-19T14:33:53;22.80;78.60
52381;DHT22;38310;52.796;6.942;2023-05-19T14:36:19;22.70;78.70
52381;DHT22;38310;52.796;6.942;2023-05-19T14:38:45;23.10;79.10
52381;DHT22;38310;52.796;6.942;2023-05-19T14:41:10;23.30;80.30
52381;DHT22;38310;52.796;6.942;2023-05-19T14:43:37;23.20;80.30
52381;DHT22;38310;52.796;6.942;2023-05-19T14:46:02;22.90;79.80
52381;DHT22;38310;52.796;6.942;2023-05-19T14:48:28;22.50;79.00
52381;DHT22;38310;52.796;6.942;2023-05-19T14:50:54;22.30;79.70
52381;DHT22;38310;52.796;6.942;2023-05-19T14:53:19;21.90;79.30
52381;DHT22;38310;52.796;6.942;2023-05-19T14:55:48;21.80;79.30
52381;DHT22;38310;52.796;6.942;2023-05-19T14:58:14;22.10;80.00
52381;DHT22;38310;52.796;6.942;2023-05-19T15:00:43;22.20;79.50
52381;DHT22;38310;52.796;6.942;2023-05-19T15:03:09;22.40;79.80
52381;DHT22;38310;52.796;6.942;2023-05-19T15:05:36;22.40;79.00
52381;DHT22;38310;52.796;6.942;2023-05-19T15:08:02;22.20;77.90
52381;DHT22;38310;52.796;6.942;2023-05-19T15:10:28;22.40;77.80
52381;DHT22;38310;52.796;6.942;2023-05-19T15:12:54;22.40;77.90
52381;DHT22;38310;52.796;6.942;2023-05-19T15:15:21;22.10;77.70
52381;DHT22;38310;52.796;6.942;2023-05-19T15:17:47;22.30;78.30
52381;DHT22;38310;52.796;6.942;2023-05-19T15:20:13;22.40;80.00
52381;DHT22;38310;52.796;6.942;2023-05-19T15:22:39;22.20;80.30
52381;DHT22;38310;52.796;6.942;2023-05-19T15:25:05;22.00;80.80
52381;DHT22;38310;52.796;6.942;2023-05-19T15:27:32;21.70;80.60
52381;DHT22;38310;52.796;6.942;2023-05-19T15:29:58;21.40;80.00
52381;DHT22;38310;52.796;6.942;2023-05-19T15:32:24;21.60;80.60
52381;DHT22;38310;52.796;6.942;2023-05-19T15:34:49;21.50;79.30
52381;DHT22;38310;52.796;6.942;2023-05-19T15:37:15;21.60;80.70
52381;DHT22;38310;52.796;6.942;2023-05-19T15:39:41;21.70;81.10
52381;DHT22;38310;52.796;6.942;2023-05-19T15:42:07;21.70;81.40
52381;DHT22;38310;52.796;6.942;2023-05-19T15:44:32;21.50;80.60
52381;DHT22;38310;52.796;6.942;2023-05-19T15:47:00;21.40;79.80
52381;DHT22;38310;52.796;6.942;2023-05-19T15:49:26;21.30;79.60
52381;DHT22;38310;52.796;6.942;2023-05-19T15:51:52;21.00;79.00
52381;DHT22;38310;52.796;6.942;2023-05-19T15:54:18;21.00;79.40
52381;DHT22;38310;52.796;6.942;2023-05-19T15:56:43;20.80;79.20
52381;DHT22;38310;52.796;6.942;2023-05-19T15:59:09;20.90;79.80
52381;DHT22;38310;52.796;6.942;2023-05-19T16:01:35;20.80;79.60